createdAt,value
2017-09-27T00:01:35.659Z,96248
2017-09-27T00:07:03.824Z,96261
2017-09-27T00:12:31.962Z,96251
2017-09-27T00:18:00.866Z,96264
2017-09-27T00:23:29.021Z,96262
2017-09-27T00:28:57.157Z,96252
2017-09-27T00:34:26.075Z,96244
2017-09-27T00:39:54.233Z,96249
2017-09-27T00:45:22.387Z,96254
2017-09-27T00:50:50.568Z,96254
2017-09-27T00:56:18.884Z,96261
2017-09-27T01:01:47.276Z,96254
2017-09-27T01:07:15.423Z,96250
2017-09-27T01:12:43.664Z,96250
2017-09-27T01:18:11.820Z,96240
2017-09-27T01:23:39.978Z,96248
2017-09-27T01:29:08.243Z,96251
2017-09-27T01:34:36.392Z,96250
2017-09-27T01:40:04.550Z,96250
2017-09-27T01:45:32.707Z,96246
2017-09-27T01:51:00.857Z,96240
2017-09-27T01:56:29.008Z,96241
2017-09-27T02:01:57.934Z,96242
2017-09-27T02:07:27.178Z,96241
2017-09-27T02:12:57.443Z,96244
2017-09-27T02:18:25.647Z,96249
2017-09-27T02:23:54.272Z,96239
2017-09-27T02:29:22.410Z,96248
2017-09-27T02:34:50.637Z,96255
2017-09-27T02:40:18.778Z,96256
2017-09-27T02:45:47.679Z,96249
2017-09-27T02:51:15.815Z,96256
2017-09-27T02:56:44.718Z,96261
2017-09-27T03:02:12.859Z,96254
2017-09-27T03:07:41.003Z,96263
2017-09-27T03:13:09.886Z,96257
2017-09-27T03:18:38.022Z,96259
2017-09-27T03:24:06.174Z,96254
2017-09-27T03:29:34.348Z,96253
2017-09-27T03:35:03.234Z,96256
2017-09-27T03:40:31.358Z,96251
2017-09-27T03:45:59.488Z,96251
2017-09-27T03:51:27.613Z,96261
2017-09-27T03:56:55.748Z,96256
2017-09-27T04:02:24.633Z,96255
2017-09-27T04:07:53.526Z,96251
2017-09-27T04:13:21.662Z,96262
2017-09-27T04:18:50.555Z,96262
2017-09-27T04:24:18.699Z,96274
2017-09-27T04:29:48.439Z,96268
2017-09-27T04:35:16.581Z,96263
2017-09-27T04:40:44.704Z,96270
2017-09-27T04:46:13.589Z,96261
2017-09-27T04:51:41.726Z,96254
2017-09-27T04:57:10.612Z,96270
2017-09-27T05:02:39.501Z,96268
2017-09-27T05:08:07.631Z,96275
2017-09-27T05:13:36.521Z,96286
2017-09-27T05:19:04.657Z,96283
2017-09-27T05:24:32.785Z,96285
2017-09-27T05:30:00.919Z,96285
2017-09-27T05:35:30.617Z,96289
2017-09-27T05:40:58.758Z,96304
2017-09-27T05:46:26.910Z,96305
2017-09-27T05:51:55.065Z,96296
2017-09-27T05:57:23.221Z,96292
2017-09-27T06:02:52.132Z,96301
2017-09-27T06:08:20.291Z,96302
2017-09-27T06:13:48.423Z,96310
2017-09-27T06:19:16.574Z,96319
2017-09-27T06:24:44.710Z,96307
2017-09-27T06:30:12.847Z,96322
2017-09-27T06:35:41.864Z,96326
2017-09-27T06:41:10.012Z,96325
2017-09-27T06:46:38.919Z,96334
2017-09-27T06:52:07.070Z,96335
2017-09-27T06:57:35.206Z,96337
2017-09-27T07:03:04.102Z,96351
2017-09-27T07:08:32.239Z,96354
2017-09-27T07:14:01.137Z,96355
2017-09-27T07:19:29.274Z,96357
2017-09-27T07:24:57.425Z,96370
2017-09-27T07:30:26.343Z,96361
2017-09-27T07:35:54.492Z,96368
2017-09-27T07:41:22.635Z,96377
2017-09-27T07:46:50.764Z,96372
2017-09-27T07:52:19.664Z,96373
2017-09-27T07:57:47.790Z,96372
2017-09-27T08:03:15.931Z,96383
2017-09-27T08:08:44.078Z,96382
2017-09-27T08:14:12.232Z,96382
2017-09-27T08:19:40.361Z,96383
2017-09-27T08:25:08.511Z,96379
2017-09-27T08:30:36.644Z,96382
2017-09-27T08:36:05.560Z,96378
2017-09-27T08:41:33.687Z,96381
2017-09-27T08:47:02.607Z,96388
2017-09-27T08:52:30.752Z,96389
2017-09-27T08:57:58.906Z,96380
2017-09-27T09:03:27.037Z,96385
2017-09-27T09:08:55.182Z,96388
2017-09-27T09:14:25.717Z,96380
2017-09-27T09:19:53.921Z,96390
2017-09-27T09:25:22.069Z,96388
2017-09-27T09:30:51.288Z,96393
2017-09-27T09:36:19.500Z,96396
2017-09-27T09:41:47.668Z,96397
2017-09-27T09:47:15.803Z,96389
2017-09-27T09:52:43.938Z,96390
2017-09-27T09:58:12.846Z,96382
2017-09-27T10:03:40.981Z,96381
2017-09-27T10:09:09.110Z,96377
2017-09-27T10:14:37.262Z,96379
2017-09-27T10:20:05.389Z,96378
2017-09-27T10:25:33.540Z,96376
2017-09-27T10:31:01.696Z,96370
2017-09-27T10:36:30.599Z,96381
2017-09-27T10:41:58.740Z,96372
2017-09-27T10:47:26.861Z,96377
2017-09-27T10:52:55.021Z,96381
2017-09-27T10:58:23.171Z,96368
2017-09-27T11:03:51.400Z,96364
2017-09-27T11:09:19.545Z,96372
2017-09-27T11:14:47.718Z,96361
2017-09-27T11:20:16.636Z,96361
2017-09-27T11:25:44.784Z,96363
2017-09-27T11:31:12.993Z,96364
2017-09-27T11:36:41.922Z,96349
2017-09-27T11:42:10.059Z,96354
2017-09-27T11:47:38.419Z,96347
2017-09-27T11:53:07.316Z,96349
2017-09-27T11:58:35.446Z,96345
2017-09-27T12:04:04.713Z,96342
2017-09-27T12:09:33.626Z,96346
2017-09-27T12:15:01.751Z,96341
2017-09-27T12:20:30.282Z,96342
2017-09-27T12:25:58.445Z,96341
2017-09-27T12:31:26.686Z,96342
2017-09-27T12:36:54.846Z,96340
2017-09-27T12:42:22.989Z,96341
2017-09-27T12:47:51.132Z,96339
2017-09-27T12:53:20.049Z,96337
2017-09-27T12:58:48.192Z,96331
2017-09-27T13:04:16.326Z,96340
2017-09-27T13:09:44.476Z,96339
2017-09-27T13:15:13.363Z,96334
2017-09-27T13:20:41.513Z,96335
2017-09-27T13:26:10.414Z,96339
2017-09-27T13:31:38.548Z,96337
2017-09-27T13:37:06.706Z,96339
2017-09-27T13:42:34.843Z,96337
2017-09-27T13:48:02.986Z,96334
2017-09-27T13:53:31.733Z,96315
2017-09-27T13:58:59.864Z,96291
2017-09-27T14:04:28.009Z,96334
2017-09-27T14:09:56.142Z,96331
2017-09-27T14:15:25.061Z,96314
2017-09-27T14:20:53.229Z,96294
2017-09-27T14:26:21.359Z,96262
2017-09-27T14:31:49.515Z,96262
2017-09-27T14:37:18.432Z,96264
2017-09-27T14:42:46.598Z,96295
2017-09-27T14:48:14.773Z,96266
2017-09-27T14:53:42.901Z,96276
2017-09-27T14:59:11.029Z,96282
2017-09-27T15:04:39.168Z,96316
2017-09-27T15:10:08.071Z,96312
2017-09-27T15:15:36.217Z,96308
2017-09-27T15:21:04.353Z,96310
2017-09-27T15:26:33.267Z,96310
2017-09-27T15:32:01.403Z,96311
2017-09-27T15:37:29.531Z,96316
2017-09-27T15:43:00.437Z,96313
2017-09-27T15:48:28.583Z,96309
2017-09-27T15:53:56.716Z,96311
2017-09-27T15:59:24.854Z,96321
2017-09-27T16:04:52.988Z,96320
2017-09-27T16:10:21.898Z,96324
2017-09-27T16:15:50.043Z,96328
2017-09-27T16:21:21.803Z,96328
2017-09-27T16:26:50.222Z,96326
2017-09-27T16:32:20.088Z,96329
2017-09-27T16:37:49.160Z,96330
2017-09-27T16:43:21.702Z,96332
2017-09-27T16:48:49.833Z,96327
2017-09-27T16:54:17.982Z,96348
2017-09-27T16:59:47.057Z,96354
2017-09-27T17:05:15.985Z,96355
2017-09-27T17:10:49.985Z,96365
2017-09-27T17:16:18.148Z,96370
2017-09-27T17:21:46.313Z,96367
2017-09-27T17:27:14.475Z,96364
2017-09-27T17:32:42.627Z,96362
2017-09-27T17:38:10.763Z,96377
2017-09-27T17:43:39.751Z,96379
2017-09-27T17:49:07.901Z,96372
2017-09-27T17:54:36.052Z,96375
2017-09-27T18:00:04.636Z,96378
2017-09-27T18:11:58.320Z,96385
2017-09-27T18:23:35.339Z,96387
2017-09-27T18:29:03.468Z,96381
2017-09-27T18:34:32.394Z,96374
2017-09-27T18:40:00.545Z,96385
2017-09-27T18:45:28.709Z,96395
2017-09-27T18:50:56.841Z,96390
2017-09-27T18:56:24.984Z,96389
2017-09-27T19:01:53.121Z,96398
2017-09-27T19:07:22.040Z,96398
2017-09-27T19:12:50.404Z,96405
2017-09-27T19:18:18.700Z,96398
2017-09-27T19:23:46.853Z,96395
2017-09-27T19:29:15.943Z,96398
2017-09-27T19:34:44.219Z,96392
2017-09-27T19:40:13.139Z,96400
2017-09-27T19:45:41.294Z,96399
2017-09-27T19:51:09.468Z,96403
2017-09-27T19:56:37.623Z,96402
2017-09-27T20:02:05.763Z,96409
2017-09-27T20:07:33.936Z,96406
2017-09-27T20:13:02.076Z,96403
2017-09-27T20:18:30.363Z,96407
2017-09-27T20:23:59.238Z,96410
2017-09-27T20:29:28.027Z,96407
2017-09-27T20:34:57.008Z,96407
2017-09-27T20:40:25.158Z,96414
2017-09-27T20:45:53.787Z,96414
2017-09-27T20:51:21.936Z,96409
2017-09-27T20:56:50.103Z,96408
2017-09-27T21:02:18.297Z,96410
2017-09-27T21:07:47.388Z,96408
2017-09-27T21:13:15.547Z,96412
2017-09-27T21:18:43.696Z,96414
2017-09-27T21:24:11.830Z,96417
2017-09-27T21:29:40.079Z,96413
2017-09-27T21:35:09.153Z,96419
2017-09-27T21:40:37.299Z,96425
2017-09-27T21:46:05.497Z,96421
2017-09-27T21:51:33.649Z,96428
2017-09-27T21:57:01.897Z,96421
2017-09-27T22:02:30.026Z,96429
2017-09-27T22:07:58.170Z,96436
2017-09-27T22:13:27.065Z,96440
2017-09-27T22:18:55.294Z,96440
2017-09-27T22:24:23.562Z,96441
2017-09-27T22:29:52.564Z,96448
2017-09-27T22:35:20.733Z,96443
2017-09-27T22:40:48.875Z,96427
2017-09-27T22:46:17.022Z,96425
2017-09-27T22:51:46.007Z,96430
2017-09-27T22:57:14.898Z,96434
2017-09-27T23:02:43.037Z,96427
2017-09-27T23:08:11.176Z,96436
2017-09-27T23:13:39.317Z,96436
2017-09-27T23:19:07.473Z,96439
2017-09-27T23:24:35.690Z,96439
2017-09-27T23:30:03.823Z,96429
2017-09-27T23:35:31.954Z,96453
2017-09-27T23:41:00.081Z,96461
2017-09-27T23:46:28.217Z,96452
2017-09-27T23:51:56.359Z,96455
2017-09-27T23:57:24.489Z,96446
